createdAt,value
2022-11-10T00:02:13.160Z,9.38
2022-11-10T00:04:40.953Z,8.38
2022-11-10T00:07:08.757Z,8.95
2022-11-10T00:09:38.247Z,8.20
2022-11-10T00:12:06.597Z,7.97
2022-11-10T00:14:51.836Z,8.63
2022-11-10T00:17:19.631Z,8.35
2022-11-10T00:19:47.382Z,9.02
2022-11-10T00:22:15.153Z,8.35
2022-11-10T00:24:44.792Z,7.32
2022-11-10T00:27:12.710Z,8.32
2022-11-10T00:29:40.586Z,7.80
2022-11-10T00:32:08.724Z,7.68
2022-11-10T00:34:37.183Z,7.63
2022-11-10T00:37:06.078Z,7.97
2022-11-10T00:39:33.868Z,8.43
2022-11-10T00:42:03.106Z,7.80
2022-11-10T00:44:30.869Z,7.60
2022-11-10T00:46:58.697Z,7.43
2022-11-10T00:49:26.769Z,7.22
2022-11-10T00:51:55.236Z,7.75
2022-11-10T00:54:23.184Z,7.03
2022-11-10T00:56:51.021Z,7.13
2022-11-10T00:59:20.129Z,7.30
2022-11-10T01:01:47.969Z,6.50
2022-11-10T01:04:15.766Z,6.78
2022-11-10T01:06:43.616Z,6.72
2022-11-10T01:09:11.401Z,6.80
2022-11-10T01:11:39.185Z,6.83
2022-11-10T01:14:07.014Z,6.85
2022-11-10T01:16:36.121Z,6.70
2022-11-10T01:19:05.392Z,6.78
2022-11-10T01:21:33.465Z,6.63
2022-11-10T01:24:01.506Z,6.30
2022-11-10T01:26:29.502Z,5.90
2022-11-10T01:28:58.267Z,6.35
2022-11-10T01:31:26.030Z,5.80
2022-11-10T01:33:55.151Z,6.20
2022-11-10T01:36:22.918Z,6.35
2022-11-10T01:38:50.655Z,6.07
2022-11-10T01:41:18.430Z,5.63
2022-11-10T01:43:46.572Z,5.97
2022-11-10T01:46:14.939Z,5.35
2022-11-10T01:48:46.521Z,5.32
2022-11-10T01:51:19.976Z,4.70
2022-11-10T01:53:52.240Z,4.18
2022-11-10T01:56:20.532Z,4.38
2022-11-10T01:58:56.277Z,4.47
2022-11-10T02:01:25.349Z,4.22
2022-11-10T02:03:55.081Z,4.68
2022-11-10T02:06:27.664Z,3.97
2022-11-10T02:08:56.777Z,3.65
2022-11-10T02:11:26.286Z,3.63
2022-11-10T02:13:54.998Z,3.30
2022-11-10T02:16:23.131Z,3.35
2022-11-10T02:18:51.100Z,3.10
2022-11-10T02:21:21.577Z,2.90
2022-11-10T02:23:51.947Z,2.60
2022-11-10T02:26:22.949Z,2.63
2022-11-10T02:28:51.048Z,2.50
2022-11-10T02:31:18.887Z,2.13
2022-11-10T02:33:46.746Z,2.40
2022-11-10T02:36:14.499Z,2.10
2022-11-10T02:38:43.596Z,2.20
2022-11-10T02:41:11.433Z,1.90
2022-11-10T02:43:40.082Z,2.10
2022-11-10T02:46:08.077Z,1.80
2022-11-10T02:48:36.964Z,1.70
2022-11-10T02:51:04.851Z,2.30
2022-11-10T02:53:32.650Z,2.20
2022-11-10T02:56:01.833Z,3.88
2022-11-10T02:58:29.625Z,3.67
2022-11-10T03:00:57.500Z,2.97
2022-11-10T03:03:25.548Z,3.30
2022-11-10T03:05:53.393Z,3.28
2022-11-10T03:08:21.152Z,3.78
2022-11-10T03:10:49.056Z,3.47
2022-11-10T03:13:18.166Z,4.07
2022-11-10T03:15:48.347Z,3.10
2022-11-10T03:18:16.126Z,3.67
2022-11-10T03:20:43.893Z,3.50
2022-11-10T03:23:11.721Z,3.67
2022-11-10T03:25:39.561Z,3.13
2022-11-10T03:28:07.317Z,3.25
2022-11-10T03:30:36.621Z,4.90
2022-11-10T03:33:05.252Z,3.08
2022-11-10T03:35:33.206Z,2.63
2022-11-10T03:38:00.996Z,2.78
2022-11-10T03:40:29.026Z,3.40
2022-11-10T03:42:56.801Z,2.20
2022-11-10T03:45:24.593Z,3.03
2022-11-10T03:47:53.696Z,3.05
2022-11-10T03:50:21.486Z,2.67
2022-11-10T03:52:49.974Z,5.28
2022-11-10T03:55:19.308Z,3.85
2022-11-10T03:57:47.096Z,3.53
2022-11-10T04:00:16.213Z,2.60
2022-11-10T04:02:43.974Z,4.00
2022-11-10T04:05:30.759Z,2.50
2022-11-10T04:08:17.778Z,3.13
2022-11-10T04:10:45.993Z,2.25
2022-11-10T04:13:31.334Z,3.03
2022-11-10T04:15:59.117Z,4.28
2022-11-10T04:18:27.004Z,3.00
2022-11-10T04:20:58.116Z,2.83
2022-11-10T04:23:27.923Z,4.65
2022-11-10T04:26:20.510Z,3.78
2022-11-10T04:28:50.186Z,3.53
2022-11-10T04:31:19.800Z,3.40
2022-11-10T04:33:48.461Z,2.97
2022-11-10T04:36:19.469Z,3.85
2022-11-10T04:38:47.238Z,3.55
2022-11-10T04:41:15.462Z,3.30
2022-11-10T04:43:44.014Z,3.45
2022-11-10T04:46:22.070Z,3.22
2022-11-10T04:48:50.576Z,2.92
2022-11-10T04:51:21.933Z,2.88
2022-11-10T04:53:49.870Z,2.97
2022-11-10T04:56:19.189Z,3.47
2022-11-10T04:58:47.872Z,3.10
2022-11-10T05:01:17.880Z,3.95
2022-11-10T05:03:47.030Z,4.70
2022-11-10T05:06:15.098Z,4.40
2022-11-10T05:08:44.743Z,4.40
2022-11-10T05:11:13.176Z,3.63
2022-11-10T05:13:41.008Z,5.03
2022-11-10T05:16:09.405Z,4.10
2022-11-10T05:18:37.293Z,3.70
2022-11-10T05:21:05.225Z,3.78
2022-11-10T05:23:41.942Z,4.60
2022-11-10T05:26:13.588Z,4.68
2022-11-10T05:28:43.608Z,4.63
2022-11-10T05:31:12.539Z,3.53
2022-11-10T05:33:41.111Z,4.45
2022-11-10T05:36:10.994Z,4.57
2022-11-10T05:38:43.292Z,4.30
2022-11-10T05:41:13.049Z,4.78
2022-11-10T05:43:41.047Z,3.40
2022-11-10T05:46:09.072Z,3.55
2022-11-10T05:48:36.865Z,4.57
2022-11-10T05:51:04.869Z,3.90
2022-11-10T05:53:32.861Z,3.53
2022-11-10T05:56:00.921Z,4.00
2022-11-10T05:58:30.128Z,5.28
2022-11-10T06:00:58.150Z,3.75
2022-11-10T06:03:26.449Z,3.47
2022-11-10T06:05:54.567Z,4.03
2022-11-10T06:08:22.334Z,5.35
2022-11-10T06:10:50.390Z,5.57
2022-11-10T06:13:18.153Z,4.93
2022-11-10T06:15:50.393Z,4.68
2022-11-10T06:18:18.802Z,4.25
2022-11-10T06:20:47.217Z,4.38
2022-11-10T06:23:15.779Z,5.40
2022-11-10T06:25:44.506Z,4.30
2022-11-10T06:28:12.366Z,3.58
2022-11-10T06:30:40.286Z,5.07
2022-11-10T06:33:10.517Z,3.55
2022-11-10T06:35:38.277Z,3.58
2022-11-10T06:38:07.737Z,4.78
2022-11-10T06:40:35.534Z,5.17
2022-11-10T06:43:03.633Z,4.03
2022-11-10T06:45:31.568Z,4.25
2022-11-10T06:48:03.514Z,4.70
2022-11-10T06:50:33.055Z,3.83
2022-11-10T06:53:01.721Z,4.70
2022-11-10T06:55:30.502Z,5.25
2022-11-10T06:57:59.031Z,4.25
2022-11-10T07:00:29.605Z,4.00
2022-11-10T07:03:05.858Z,3.83
2022-11-10T07:05:36.913Z,3.75
2022-11-10T07:08:05.845Z,5.27
2022-11-10T07:10:34.768Z,5.47
2022-11-10T07:13:04.062Z,3.50
2022-11-10T07:15:33.717Z,3.45
2022-11-10T07:18:02.457Z,6.38
2022-11-10T07:20:30.277Z,4.20
2022-11-10T07:23:00.964Z,4.50
2022-11-10T07:25:30.269Z,4.05
2022-11-10T07:28:00.025Z,3.90
2022-11-10T07:30:28.760Z,4.22
2022-11-10T07:33:01.230Z,4.07
2022-11-10T07:35:29.407Z,4.53
2022-11-10T07:37:59.149Z,5.65
2022-11-10T07:40:27.098Z,6.17
2022-11-10T07:42:54.997Z,6.45
2022-11-10T07:45:22.909Z,5.85
2022-11-10T07:47:51.252Z,4.90
2022-11-10T07:50:19.713Z,5.63
2022-11-10T07:52:47.505Z,4.60
2022-11-10T07:55:16.773Z,6.03
2022-11-10T07:57:44.698Z,4.70
2022-11-10T08:00:13.595Z,4.32
2022-11-10T08:02:41.346Z,5.63
2022-11-10T08:05:10.301Z,5.18
2022-11-10T08:07:38.202Z,5.53
2022-11-10T08:10:06.850Z,6.32
2022-11-10T08:12:36.116Z,5.30
2022-11-10T08:15:05.109Z,5.75
2022-11-10T08:17:32.921Z,4.63
2022-11-10T08:20:01.247Z,6.88
2022-11-10T08:22:29.030Z,5.60
2022-11-10T08:24:56.843Z,6.03
2022-11-10T08:27:24.648Z,4.70
2022-11-10T08:29:53.770Z,5.38
2022-11-10T08:32:23.595Z,5.18
2022-11-10T08:34:51.665Z,5.18
2022-11-10T08:37:19.478Z,5.40
2022-11-10T08:39:47.269Z,5.30
2022-11-10T08:42:15.195Z,6.80
2022-11-10T08:44:42.980Z,7.40
2022-11-10T08:47:12.091Z,6.85
2022-11-10T08:49:39.877Z,6.87
2022-11-10T08:52:07.672Z,8.80
2022-11-10T08:54:35.445Z,6.32
2022-11-10T08:57:03.213Z,4.65
2022-11-10T08:59:30.961Z,5.95
2022-11-10T09:01:59.374Z,5.32
2022-11-10T09:04:28.648Z,5.55
2022-11-10T09:06:57.813Z,5.05
2022-11-10T09:09:26.345Z,6.45
2022-11-10T09:11:55.462Z,4.80
2022-11-10T09:14:23.311Z,5.70
2022-11-10T09:16:51.077Z,4.22
2022-11-10T09:19:20.187Z,4.22
2022-11-10T09:21:49.508Z,3.80
2022-11-10T09:24:17.367Z,5.47
2022-11-10T09:26:47.741Z,3.60
2022-11-10T09:29:15.707Z,4.93
2022-11-10T09:31:45.006Z,3.13
2022-11-10T09:34:12.973Z,3.10
2022-11-10T09:36:41.158Z,5.38
2022-11-10T09:39:10.361Z,3.83
2022-11-10T09:41:41.136Z,4.60
2022-11-10T09:44:14.549Z,6.53
2022-11-10T09:46:46.121Z,5.30
2022-11-10T09:49:26.427Z,3.87
2022-11-10T09:51:55.593Z,3.15
2022-11-10T09:54:33.390Z,5.03
2022-11-10T09:57:01.615Z,4.90
2022-11-10T09:59:32.222Z,5.22
2022-11-10T10:02:04.878Z,4.78
2022-11-10T10:04:59.357Z,3.97
2022-11-10T10:07:31.934Z,4.57
2022-11-10T10:10:14.523Z,4.53
2022-11-10T10:12:57.477Z,3.97
2022-11-10T10:15:30.809Z,3.38
2022-11-10T10:18:12.946Z,4.70
2022-11-10T10:20:52.271Z,5.60
2022-11-10T10:23:54.075Z,5.47
2022-11-10T10:26:20.585Z,2.80
2022-11-10T10:28:50.980Z,4.97
2022-11-10T10:31:21.660Z,4.63
2022-11-10T10:33:50.218Z,4.22
2022-11-10T10:36:20.983Z,4.30
2022-11-10T10:38:52.690Z,5.00
2022-11-10T10:41:25.941Z,4.38
2022-11-10T10:43:55.953Z,3.27
2022-11-10T10:46:28.378Z,3.42
2022-11-10T10:49:28.231Z,4.30
2022-11-10T10:52:04.853Z,3.28
2022-11-10T10:54:34.131Z,4.90
2022-11-10T10:57:05.541Z,6.90
2022-11-10T10:59:34.265Z,3.88
2022-11-10T11:02:02.089Z,5.03
2022-11-10T11:04:33.591Z,4.30
2022-11-10T11:07:04.147Z,3.17
2022-11-10T11:09:40.934Z,4.40
2022-11-10T11:12:12.916Z,5.07
2022-11-10T11:14:45.813Z,4.22
2022-11-10T11:17:18.560Z,3.17
2022-11-10T11:19:46.492Z,3.70
2022-11-10T11:22:40.119Z,3.25
2022-11-10T11:25:17.283Z,3.45
2022-11-10T11:27:57.459Z,3.22
2022-11-10T11:30:29.481Z,3.60
2022-11-10T11:33:14.126Z,3.42
2022-11-10T11:35:48.015Z,3.22
2022-11-10T11:38:20.616Z,4.28
2022-11-10T11:40:52.745Z,2.53
2022-11-10T11:43:47.254Z,3.40
2022-11-10T11:46:22.079Z,3.90
2022-11-10T11:48:56.976Z,3.33
2022-11-10T11:51:32.807Z,4.65
2022-11-10T11:54:27.573Z,3.88
2022-11-10T11:57:00.623Z,3.42
2022-11-10T11:59:59.230Z,4.25
2022-11-10T12:02:51.545Z,4.15
2022-11-10T12:05:31.504Z,2.35
2022-11-10T12:08:09.463Z,4.40
2022-11-10T12:10:49.973Z,3.95
2022-11-10T12:13:39.565Z,3.80
2022-11-10T12:16:18.740Z,4.88
2022-11-10T12:18:49.846Z,3.60
2022-11-10T12:21:25.489Z,3.25
2022-11-10T12:24:10.509Z,5.13
2022-11-10T12:26:44.154Z,4.93
2022-11-10T12:29:21.449Z,4.30
2022-11-10T12:31:55.641Z,3.58
2022-11-10T12:34:33.880Z,4.17
2022-11-10T12:37:07.536Z,4.57
2022-11-10T12:39:44.194Z,3.83
2022-11-10T12:42:16.675Z,4.82
2022-11-10T12:44:56.084Z,2.77
2022-11-10T12:47:30.081Z,3.50
2022-11-10T12:50:12.339Z,2.47
2022-11-10T12:52:44.435Z,2.80
2022-11-10T12:55:14.038Z,2.38
2022-11-10T12:57:43.877Z,3.05
2022-11-10T13:00:28.057Z,3.30
2022-11-10T13:02:59.377Z,6.35
2022-11-10T13:05:33.469Z,4.20
2022-11-10T13:08:24.126Z,3.55
2022-11-10T13:10:55.715Z,4.30
2022-11-10T13:13:24.605Z,3.45
2022-11-10T13:15:58.050Z,4.95
2022-11-10T13:18:53.290Z,4.45
2022-11-10T13:22:01.218Z,3.45
2022-11-10T13:24:30.406Z,2.92
2022-11-10T13:26:59.383Z,2.22
2022-11-10T13:29:34.780Z,4.10
2022-11-10T13:32:24.716Z,2.72
2022-11-10T13:34:53.184Z,2.83
2022-11-10T13:37:51.245Z,4.20
2022-11-10T13:40:29.445Z,3.40
2022-11-10T13:43:25.529Z,2.22
2022-11-10T13:46:06.021Z,3.58
2022-11-10T13:48:59.807Z,2.00
2022-11-10T13:51:39.334Z,2.40
2022-11-10T13:54:27.067Z,5.70
2022-11-10T13:57:22.518Z,5.00
2022-11-10T13:59:53.197Z,3.10
2022-11-10T14:02:50.544Z,2.70
2022-11-10T14:06:03.346Z,4.33
2022-11-10T14:08:46.321Z,2.88
2022-11-10T14:11:30.817Z,2.55
2022-11-10T14:14:03.754Z,3.17
2022-11-10T14:16:34.521Z,2.72
2022-11-10T14:19:07.279Z,3.53
2022-11-10T14:21:43.557Z,2.63
2022-11-10T14:24:17.844Z,2.93
2022-11-10T14:26:51.792Z,1.83
2022-11-10T14:29:39.854Z,2.35
2022-11-10T14:32:17.600Z,3.55
2022-11-10T14:34:50.098Z,2.50
2022-11-10T14:37:24.203Z,2.65
2022-11-10T14:39:55.762Z,3.13
2022-11-10T14:42:27.219Z,3.72
2022-11-10T14:45:15.161Z,2.92
2022-11-10T14:47:43.467Z,2.95
2022-11-10T14:50:20.049Z,5.93
2022-11-10T14:52:51.764Z,3.22
2022-11-10T14:55:22.892Z,3.25
2022-11-10T14:57:55.686Z,2.50
2022-11-10T15:00:26.320Z,2.63
2022-11-10T15:02:56.586Z,3.73
2022-11-10T15:05:25.102Z,3.67
2022-11-10T15:07:56.598Z,3.08
2022-11-10T15:10:27.758Z,3.03
2022-11-10T15:13:05.635Z,2.78
2022-11-10T15:15:33.753Z,3.85
2022-11-10T15:18:01.544Z,3.22
2022-11-10T15:20:32.501Z,4.25
2022-11-10T15:23:02.233Z,2.70
2022-11-10T15:25:39.474Z,2.47
2022-11-10T15:28:22.934Z,2.83
2022-11-10T15:30:52.904Z,2.30
2022-11-10T15:33:26.146Z,3.55
2022-11-10T15:35:54.707Z,2.50
2022-11-10T15:38:32.161Z,2.58
2022-11-10T15:41:12.759Z,3.25
2022-11-10T15:43:42.470Z,2.35
2022-11-10T15:46:18.093Z,3.75
2022-11-10T15:48:48.611Z,4.10
2022-11-10T15:51:24.695Z,3.67
2022-11-10T15:53:54.642Z,3.75
2022-11-10T15:56:24.741Z,4.60
2022-11-10T15:59:00.641Z,2.67
2022-11-10T16:01:31.414Z,6.68
2022-11-10T16:03:59.314Z,5.15
2022-11-10T16:06:27.420Z,4.03
2022-11-10T16:08:55.375Z,4.80
2022-11-10T16:11:24.598Z,4.70
2022-11-10T16:13:55.610Z,4.57
2022-11-10T16:16:24.051Z,5.70
2022-11-10T16:18:52.484Z,5.65
2022-11-10T16:21:22.838Z,4.60
2022-11-10T16:23:51.034Z,7.88
2022-11-10T16:26:21.425Z,7.38
2022-11-10T16:28:51.747Z,7.07
2022-11-10T16:31:22.386Z,6.10
2022-11-10T16:33:50.511Z,6.78
2022-11-10T16:36:24.878Z,5.82
2022-11-10T16:38:54.549Z,4.13
2022-11-10T16:41:22.811Z,5.53
2022-11-10T16:43:51.194Z,4.47
2022-11-10T16:46:22.746Z,6.80
2022-11-10T16:48:52.006Z,4.00
2022-11-10T16:51:29.546Z,6.75
2022-11-10T16:53:59.641Z,6.55
2022-11-10T16:56:27.829Z,9.98
2022-11-10T16:58:56.171Z,9.15
2022-11-10T17:01:28.584Z,6.70
2022-11-10T17:03:59.218Z,7.55
2022-11-10T17:06:28.878Z,6.93
2022-11-10T17:09:01.180Z,6.97
2022-11-10T17:11:29.018Z,9.02
2022-11-10T17:13:56.758Z,6.38
2022-11-10T17:16:29.460Z,10.75
2022-11-10T17:18:58.695Z,12.32
2022-11-10T17:21:32.912Z,7.93
2022-11-10T17:24:01.691Z,10.05
2022-11-10T17:26:30.467Z,7.88
2022-11-10T17:28:58.504Z,6.25
2022-11-10T17:31:27.749Z,7.32
2022-11-10T17:33:55.534Z,8.32
2022-11-10T17:36:24.738Z,7.03
2022-11-10T17:38:52.935Z,7.65
2022-11-10T17:41:21.180Z,7.40
2022-11-10T17:43:49.034Z,7.93
2022-11-10T17:46:17.143Z,7.78
2022-11-10T17:48:47.537Z,7.05
2022-11-10T17:51:19.711Z,7.20
2022-11-10T17:53:48.018Z,7.95
2022-11-10T17:56:15.799Z,6.97
2022-11-10T17:58:43.635Z,6.05
2022-11-10T18:01:15.760Z,6.05
2022-11-10T18:03:43.668Z,8.07
2022-11-10T18:06:15.905Z,9.82
2022-11-10T18:08:44.229Z,8.88
2022-11-10T18:11:14.029Z,8.40
2022-11-10T18:13:43.094Z,8.75
2022-11-10T18:16:12.258Z,7.50
2022-11-10T18:18:40.042Z,8.00
2022-11-10T18:21:08.613Z,8.50
2022-11-10T18:23:38.553Z,5.60
2022-11-10T18:26:07.638Z,5.63
2022-11-10T18:28:36.001Z,7.38
2022-11-10T18:31:07.658Z,7.55
2022-11-10T18:33:35.924Z,10.73
2022-11-10T18:36:04.405Z,7.25
2022-11-10T18:38:32.652Z,5.30
2022-11-10T18:41:26.539Z,5.75
2022-11-10T18:43:55.016Z,7.18
2022-11-10T18:46:23.014Z,7.43
2022-11-10T18:48:50.827Z,7.20
2022-11-10T18:51:19.004Z,7.27
2022-11-10T18:53:46.805Z,6.78
2022-11-10T18:56:15.962Z,8.35
2022-11-10T18:58:43.748Z,9.05
2022-11-10T19:01:12.127Z,8.60
2022-11-10T19:03:40.066Z,9.77
2022-11-10T19:06:08.103Z,10.55
2022-11-10T19:08:36.930Z,11.52
2022-11-10T19:11:07.690Z,9.95
2022-11-10T19:13:37.496Z,10.43
2022-11-10T19:16:06.406Z,11.80
2022-11-10T19:18:34.310Z,12.88
2022-11-10T19:21:05.568Z,10.30
2022-11-10T19:23:33.972Z,14.77
2022-11-10T19:26:02.326Z,11.85
2022-11-10T19:28:30.954Z,11.68
2022-11-10T19:31:03.602Z,11.27
2022-11-10T19:33:32.491Z,12.73
2022-11-10T19:36:04.224Z,12.05
2022-11-10T19:38:32.127Z,11.13
2022-11-10T19:41:04.378Z,13.23
2022-11-10T19:43:32.520Z,12.05
2022-11-10T19:46:04.062Z,11.40
2022-11-10T19:48:32.705Z,15.82
2022-11-10T19:51:01.942Z,12.93
2022-11-10T19:53:30.756Z,13.05
2022-11-10T19:56:02.334Z,12.63
2022-11-10T19:58:30.644Z,11.98
2022-11-10T20:01:00.045Z,11.55
2022-11-10T20:03:30.182Z,13.38
2022-11-10T20:06:02.298Z,13.80
2022-11-10T20:08:30.670Z,14.65
2022-11-10T20:11:01.276Z,12.75
2022-11-10T20:13:29.110Z,12.35
2022-11-10T20:15:57.150Z,13.10
2022-11-10T20:18:25.288Z,11.15
2022-11-10T20:20:54.477Z,12.00
2022-11-10T20:23:22.603Z,15.15
2022-11-10T20:25:50.543Z,10.35
2022-11-10T20:28:18.321Z,11.50
2022-11-10T20:30:46.766Z,10.27
2022-11-10T20:33:14.562Z,10.25
2022-11-10T20:35:43.778Z,11.53
2022-11-10T20:38:12.918Z,12.07
2022-11-10T20:40:44.974Z,13.27
2022-11-10T20:43:14.721Z,12.52
2022-11-10T20:45:42.587Z,13.52
2022-11-10T20:48:10.443Z,12.70
2022-11-10T20:50:41.096Z,11.25
2022-11-10T20:53:08.928Z,12.50
2022-11-10T20:55:55.176Z,13.45
2022-11-10T20:58:23.762Z,13.07
2022-11-10T21:00:52.320Z,12.20
2022-11-10T21:03:20.500Z,11.43
2022-11-10T21:05:53.065Z,13.75
2022-11-10T21:08:20.871Z,11.02
2022-11-10T21:10:52.951Z,11.85
2022-11-10T21:13:21.660Z,12.95
2022-11-10T21:15:51.697Z,13.45
2022-11-10T21:18:20.815Z,11.50
2022-11-10T21:20:48.866Z,12.45
2022-11-10T21:23:18.140Z,13.77
2022-11-10T21:25:52.509Z,13.38
2022-11-10T21:28:21.625Z,10.63
2022-11-10T21:30:49.443Z,11.90
2022-11-10T21:33:17.412Z,11.65
2022-11-10T21:35:45.448Z,12.55
2022-11-10T21:38:14.041Z,10.75
2022-11-10T21:40:41.838Z,11.45
2022-11-10T21:43:10.075Z,12.80
2022-11-10T21:45:39.189Z,13.23
2022-11-10T21:48:07.838Z,10.45
2022-11-10T21:50:35.610Z,10.57
2022-11-10T21:53:07.270Z,10.35
2022-11-10T21:55:35.095Z,9.98
2022-11-10T21:58:02.861Z,10.05
2022-11-10T22:00:30.634Z,11.30
2022-11-10T22:03:00.823Z,10.90
2022-11-10T22:05:28.598Z,10.63
2022-11-10T22:07:56.384Z,10.23
2022-11-10T22:10:41.857Z,10.52
2022-11-10T22:13:33.781Z,10.90
2022-11-10T22:16:19.178Z,10.65
2022-11-10T22:18:48.585Z,11.77
2022-11-10T22:21:16.364Z,11.15
2022-11-10T22:24:01.389Z,9.98
2022-11-10T22:26:29.198Z,10.60
2022-11-10T22:28:56.981Z,9.88
2022-11-10T22:31:25.059Z,10.23
2022-11-10T22:33:54.178Z,11.85
2022-11-10T22:36:22.601Z,11.85
2022-11-10T22:38:50.598Z,10.43
2022-11-10T22:41:38.298Z,13.95
2022-11-10T22:44:06.861Z,12.25
2022-11-10T22:46:36.795Z,11.48
2022-11-10T22:49:08.880Z,10.60
2022-11-10T22:51:37.669Z,10.90
2022-11-10T22:54:06.649Z,9.55
2022-11-10T22:56:34.760Z,10.20
2022-11-10T22:59:02.861Z,11.05
2022-11-10T23:01:30.711Z,11.20
2022-11-10T23:03:59.389Z,10.30
2022-11-10T23:06:29.057Z,11.32
2022-11-10T23:08:57.531Z,10.23
2022-11-10T23:11:27.144Z,10.15
2022-11-10T23:13:55.058Z,10.43
2022-11-10T23:16:25.155Z,10.30
2022-11-10T23:18:54.149Z,10.37
2022-11-10T23:21:24.028Z,10.38
2022-11-10T23:23:53.443Z,10.38
2022-11-10T23:26:22.954Z,10.45
2022-11-10T23:28:52.240Z,10.65
2022-11-10T23:31:22.175Z,12.43
2022-11-10T23:33:52.510Z,9.43
2022-11-10T23:36:21.465Z,10.13
2022-11-10T23:38:49.302Z,10.25
2022-11-10T23:41:20.438Z,9.55
2022-11-10T23:43:48.506Z,9.77
2022-11-10T23:46:16.610Z,10.98
2022-11-10T23:48:44.635Z,10.68
2022-11-10T23:51:14.305Z,9.88
2022-11-10T23:53:42.641Z,10.98
2022-11-10T23:56:12.818Z,10.45
2022-11-10T23:58:42.367Z,10.98
